Time;durP1;ratioP1;P1;durP2;ratioP2;P2;SDS_P1;SDS_P2;PMS_P1;PMS_P2;Temp;Humidity;BMP_temperature;BMP_pressure;BME280_temperature;BME280_humidity;BME280_pressure;Samples;Min_cycle;Max_cycle;Signal;HPM_P1;HPM_P2
2024/01/29 00:01:47;;;;;;;0.30;0.30;;;4.30;99.90;;;;;;5155791;27;20050;-71
2024/01/29 00:04:13;;;;;;;0.50;0.50;;;4.40;99.90;;;;;;5120312;27;20054;-71
2024/01/29 00:06:39;;;;;;;0.43;0.43;;;4.10;99.90;;;;;;5155037;27;20057;-71
2024/01/29 00:09:05;;;;;;;0.80;0.80;;;4.30;99.90;;;;;;5136677;27;20103;-71
2024/01/29 00:11:33;;;;;;;0.50;0.50;;;4.70;99.90;;;;;;5154802;27;20130;-71
2024/01/29 00:13:59;;;;;;;0.47;0.47;;;4.40;99.90;;;;;;5154906;27;20049;-71
2024/01/29 00:16:25;;;;;;;;;;;4.00;99.90;;;;;;5155257;27;20084;-71
2024/01/29 00:18:50;;;;;;;0.40;0.40;;;4.30;99.90;;;;;;5136670;27;20397;-71
2024/01/29 00:21:16;;;;;;;0.75;0.75;;;4.30;99.90;;;;;;5154843;27;20038;-71
2024/01/29 00:23:42;;;;;;;1.17;1.08;;;4.30;99.90;;;;;;5155537;27;20054;-71
2024/01/29 00:26:07;;;;;;;0.43;0.43;;;4.40;99.90;;;;;;5136583;27;20046;-71
2024/01/29 00:28:33;;;;;;;0.75;0.75;;;4.50;99.90;;;;;;5155039;27;20042;-71
2024/01/29 00:30:59;;;;;;;0.50;0.50;;;4.50;99.90;;;;;;5155005;27;20042;-71
2024/01/29 00:33:25;;;;;;;0.95;0.88;;;4.30;99.90;;;;;;5155839;27;20039;-71
2024/01/29 00:35:51;;;;;;;2.20;1.67;;;4.30;99.90;;;;;;5154739;27;20046;-72
2024/01/29 00:38:16;;;;;;;0.35;0.35;;;4.30;99.90;;;;;;5136573;27;20039;-71
2024/01/29 00:40:42;;;;;;;1.15;1.02;;;4.30;99.90;;;;;;5136569;27;20043;-71
2024/01/29 00:43:08;;;;;;;0.57;0.57;;;4.10;99.90;;;;;;5166776;27;20050;-71
2024/01/29 00:45:34;;;;;;;0.55;0.55;;;4.30;99.90;;;;;;5171124;27;20049;-71
2024/01/29 00:48:00;;;;;;;1.67;0.65;;;4.10;99.90;;;;;;5171259;27;20047;-70
2024/01/29 00:50:26;;;;;;;0.68;0.68;;;4.40;99.90;;;;;;5169471;27;20057;-71
2024/01/29 00:52:52;;;;;;;0.60;0.60;;;3.90;99.90;;;;;;5151084;27;20049;-71
2024/01/29 00:55:18;;;;;;;0.68;0.68;;;4.00;1.00;;;;;;5134880;27;20049;-70
2024/01/29 00:57:44;;;;;;;1.80;0.95;;;4.00;1.00;;;;;;5154086;27;20113;-71
2024/01/29 01:00:11;;;;;;;1.38;1.27;;;4.10;1.00;;;;;;5154552;27;20106;-71
2024/01/29 01:02:37;;;;;;;0.40;0.40;;;3.90;1.00;;;;;;5153164;27;20068;-71
2024/01/29 01:05:03;;;;;;;0.22;0.22;;;4.00;1.00;;;;;;5171867;27;20102;-70
2024/01/29 01:07:29;;;;;;;;;;;4.20;1.00;;;;;;5153627;27;20106;-71
2024/01/29 01:09:55;;;;;;;0.52;0.52;;;3.90;1.00;;;;;;5138176;27;19940;-71
2024/01/29 01:12:22;;;;;;;0.55;0.50;;;3.70;1.00;;;;;;5152664;27;20077;-71
2024/01/29 01:14:48;;;;;;;0.52;0.52;;;4.00;1.00;;;;;;5150223;27;20046;-71
2024/01/29 01:17:14;;;;;;;0.65;0.45;;;3.90;1.00;;;;;;5153363;27;20043;-71
2024/01/29 01:19:40;;;;;;;0.57;0.57;;;3.60;1.00;;;;;;5171423;27;20082;-70
2024/01/29 01:22:06;;;;;;;0.43;0.43;;;3.80;1.00;;;;;;5157882;27;20059;-71
2024/01/29 01:24:32;;;;;;;0.25;0.25;;;3.60;1.00;;;;;;5140604;27;20025;-71
2024/01/29 01:26:58;;;;;;;0.75;0.75;;;3.40;1.00;;;;;;5142393;27;20039;-71
2024/01/29 01:29:24;;;;;;;0.20;0.20;;;3.50;1.00;;;;;;5179910;27;20098;-71
2024/01/29 01:31:50;;;;;;;1.25;1.02;;;3.30;1.00;;;;;;5141618;27;20066;-71
2024/01/29 01:34:17;;;;;;;0.25;0.25;;;3.70;1.00;;;;;;5175129;27;20043;-71
2024/01/29 01:36:42;;;;;;;0.68;0.68;;;3.70;1.00;;;;;;5175413;27;20047;-71
2024/01/29 01:39:08;;;;;;;0.40;0.40;;;3.90;1.00;;;;;;5161028;27;20095;-71
2024/01/29 01:41:35;;;;;;;0.85;0.85;;;3.60;1.00;;;;;;5138636;27;20062;-71
2024/01/29 01:44:01;;;;;;;0.43;0.43;;;4.00;1.00;;;;;;5153487;27;20054;-71
2024/01/29 01:46:27;;;;;;;0.50;0.50;;;3.80;1.00;;;;;;5173049;27;20043;-71
2024/01/29 01:48:54;;;;;;;;;;;4.00;1.00;;;;;;5148770;27;20050;-72
2024/01/29 01:51:21;;;;;;;0.68;0.68;;;3.70;1.00;;;;;;5158143;27;19919;-71
2024/01/29 01:53:50;;;;;;;2.15;1.98;;;3.60;1.00;;;;;;5158088;27;20078;-71
2024/01/29 01:56:16;;;;;;;0.80;0.70;;;3.60;1.00;;;;;;5140308;27;20121;-71
2024/01/29 01:58:42;;;;;;;0.68;0.68;;;3.70;1.00;;;;;;5158348;27;20113;-71
2024/01/29 02:01:08;;;;;;;0.30;0.30;;;3.70;1.00;;;;;;5158459;27;20387;-71
2024/01/29 02:03:34;;;;;;;0.60;0.60;;;3.90;1.00;;;;;;5157972;27;20035;-71
2024/01/29 02:06:00;;;;;;;0.63;0.63;;;3.40;1.00;;;;;;5158283;27;20394;-71
2024/01/29 02:08:26;;;;;;;0.50;0.50;;;3.60;1.00;;;;;;5159083;27;20039;-71
2024/01/29 02:10:54;;;;;;;0.47;0.45;;;3.60;1.00;;;;;;5157654;27;20074;-71
2024/01/29 02:13:20;;;;;;;0.80;0.80;;;;;;;;;;5158480;27;20479;-71
2024/01/29 02:15:45;;;;;;;3.33;1.27;;;3.40;1.00;;;;;;5157668;27;20051;-71
2024/01/29 02:18:12;;;;;;;0.60;0.60;;;;;;;;;;5158004;27;20054;-70
2024/01/29 02:20:37;;;;;;;0.77;0.77;;;3.30;1.00;;;;;;5157496;27;20486;-71
2024/01/29 02:23:03;;;;;;;0.22;0.22;;;3.40;1.00;;;;;;5158500;27;20058;-71
2024/01/29 02:25:29;;;;;;;0.65;0.65;;;3.10;1.00;;;;;;5141163;27;20051;-71
2024/01/29 02:27:56;;;;;;;0.40;0.40;;;;;;;;;;5157932;27;20050;-71
2024/01/29 02:30:22;;;;;;;;;;;3.40;1.00;;;;;;5160616;27;20047;-71
2024/01/29 02:32:47;;;;;;;0.30;0.30;;;3.30;1.00;;;;;;5158416;27;19974;-71
2024/01/29 02:35:13;;;;;;;1.15;1.08;;;3.20;1.00;;;;;;5158008;27;20046;-71
2024/01/29 02:37:39;;;;;;;0.30;0.30;;;3.10;1.00;;;;;;5158461;27;20046;-71
2024/01/29 02:40:05;;;;;;;0.77;0.77;;;3.20;1.00;;;;;;5159705;27;20524;-71
2024/01/29 02:42:31;;;;;;;;;;;3.70;1.00;;;;;;5158848;27;20138;-71
2024/01/29 02:44:56;;;;;;;0.40;0.40;;;3.20;1.00;;;;;;5157446;27;20370;-71
2024/01/29 02:47:22;;;;;;;1.80;0.75;;;3.50;1.00;;;;;;5158552;27;20062;-71
2024/01/29 02:49:48;;;;;;;0.65;0.65;;;3.30;1.00;;;;;;5160767;27;20086;-71
2024/01/29 02:52:14;;;;;;;0.57;0.57;;;3.40;1.00;;;;;;5140261;27;20051;-71
2024/01/29 02:54:40;;;;;;;0.38;0.38;;;3.20;1.00;;;;;;5139059;27;20046;-72
2024/01/29 02:57:06;;;;;;;1.13;1.10;;;3.40;1.00;;;;;;5161465;27;20038;-71
2024/01/29 02:59:32;;;;;;;1.40;1.30;;;3.40;1.00;;;;;;5157568;27;20390;-71
2024/01/29 03:01:58;;;;;;;0.85;0.85;;;3.30;1.00;;;;;;5159568;27;20046;-71
2024/01/29 03:04:25;;;;;;;0.60;0.60;;;;;;;;;;5141902;27;20387;-71
2024/01/29 03:06:50;;;;;;;1.75;0.63;;;3.30;1.00;;;;;;5157114;27;20046;-70
2024/01/29 03:09:16;;;;;;;0.30;0.28;;;3.10;1.00;;;;;;5158541;27;20047;-71
2024/01/29 03:11:43;;;;;;;0.40;0.40;;;3.20;1.00;;;;;;5156951;27;20039;-70
2024/01/29 03:14:09;;;;;;;0.40;0.40;;;3.30;1.00;;;;;;5158828;27;20429;-71
2024/01/29 03:16:35;;;;;;;0.82;0.82;;;3.30;1.00;;;;;;5157067;27;20053;-71
2024/01/29 03:19:01;;;;;;;2.80;1.02;;;3.30;1.00;;;;;;5157076;27;20494;-71
2024/01/29 03:21:27;;;;;;;0.47;0.47;;;3.30;1.00;;;;;;5138553;27;20129;-71
2024/01/29 03:23:56;;;;;;;0.40;0.40;;;3.20;1.00;;;;;;5157759;27;20062;-71
2024/01/29 03:26:22;;;;;;;0.32;0.32;;;2.90;1.00;;;;;;5157193;27;20088;-71
2024/01/29 03:28:49;;;;;;;0.40;0.40;;;3.00;1.00;;;;;;5157140;27;20047;-72
2024/01/29 03:31:15;;;;;;;0.60;0.60;;;3.10;1.00;;;;;;5164543;27;20103;-71
2024/01/29 03:33:40;;;;;;;0.30;0.30;;;3.00;1.00;;;;;;5174710;27;20097;-71
2024/01/29 03:36:07;;;;;;;0.68;0.68;;;2.80;1.00;;;;;;5156292;27;20108;-71
2024/01/29 03:38:34;;;;;;;1.98;0.80;;;3.10;1.00;;;;;;5174859;27;20070;-71
2024/01/29 03:41:00;;;;;;;0.38;0.38;;;3.10;1.00;;;;;;5138976;27;20120;-71
2024/01/29 03:43:27;;;;;;;0.30;0.30;;;3.20;1.00;;;;;;5154566;27;20042;-71
2024/01/29 03:45:55;;;;;;;0.85;0.85;;;3.00;1.00;;;;;;5170815;27;20051;-71
2024/01/29 03:48:21;;;;;;;0.75;0.50;;;3.00;1.00;;;;;;5172391;27;20043;-71
2024/01/29 03:50:47;;;;;;;0.55;0.50;;;3.00;1.00;;;;;;5172086;27;20098;-71
2024/01/29 03:53:13;;;;;;;0.55;0.55;;;3.00;1.00;;;;;;5173543;27;20076;-71
2024/01/29 03:55:39;;;;;;;0.63;0.63;;;2.50;1.00;;;;;;5170567;27;20038;-71
2024/01/29 03:58:04;;;;;;;0.80;0.80;;;2.60;1.00;;;;;;5172711;27;20099;-71
2024/01/29 04:00:30;;;;;;;5.05;3.10;;;3.00;1.00;;;;;;5171410;27;20035;-71
2024/01/29 04:02:57;;;;;;;0.55;0.55;;;2.80;1.00;;;;;;5154285;27;20034;-71
2024/01/29 04:05:22;;;;;;;;;;;2.80;1.00;;;;;;5174301;27;20043;-71
2024/01/29 04:07:49;;;;;;;0.55;0.55;;;2.80;1.00;;;;;;5154387;27;19925;-72
2024/01/29 04:10:15;;;;;;;;;;;2.80;1.00;;;;;;5173564;27;20120;-71
2024/01/29 04:12:42;;;;;;;0.50;0.50;;;2.80;1.00;;;;;;5175518;27;19926;-71
2024/01/29 04:15:09;;;;;;;0.90;0.90;;;;;;;;;;5138132;27;20042;-71
2024/01/29 04:17:35;;;;;;;;;;;;;;;;;;5173769;27;20057;-71
2024/01/29 04:20:02;;;;;;;0.68;0.68;;;2.80;1.00;;;;;;5176450;27;19965;-71
2024/01/29 04:22:28;;;;;;;1.27;1.17;;;2.80;1.00;;;;;;5158426;27;20051;-71
2024/01/29 04:24:54;;;;;;;1.63;1.10;;;3.10;1.00;;;;;;5159855;27;20034;-71
2024/01/29 04:27:20;;;;;;;0.60;0.60;;;2.70;1.00;;;;;;5140466;27;20034;-71
2024/01/29 04:29:46;;;;;;;0.68;0.68;;;2.70;1.00;;;;;;5141986;27;20184;-71
2024/01/29 04:32:12;;;;;;;0.40;0.40;;;2.90;1.00;;;;;;5174325;27;20139;-71
2024/01/29 04:34:38;;;;;;;1.25;0.80;;;2.90;1.00;;;;;;5138762;27;20113;-71
2024/01/29 04:37:04;;;;;;;0.40;0.40;;;3.40;1.00;;;;;;5119511;27;20072;-71
2024/01/29 04:39:30;;;;;;;1.52;1.42;;;3.10;1.00;;;;;;5161700;27;20133;-71
2024/01/29 04:41:56;;;;;;;0.47;0.47;;;3.30;1.00;;;;;;5161103;27;20470;-71
2024/01/29 04:44:21;;;;;;;0.82;0.82;;;3.20;1.00;;;;;;5143104;27;20039;-71
2024/01/29 04:46:48;;;;;;;3.40;1.38;;;3.10;1.00;;;;;;5143487;27;20049;-71
2024/01/29 04:49:14;;;;;;;1.05;1.05;;;;;;;;;;5162683;27;20051;-72
2024/01/29 04:51:39;;;;;;;0.70;0.70;;;3.30;1.00;;;;;;5144028;27;20042;-71
2024/01/29 04:54:05;;;;;;;0.60;0.60;;;3.20;1.00;;;;;;5161632;27;20076;-71
2024/01/29 04:56:31;;;;;;;1.23;0.80;;;3.50;1.00;;;;;;5166550;27;20034;-71
2024/01/29 04:58:57;;;;;;;0.77;0.77;;;;;;;;;;5165714;27;20043;-71
2024/01/29 05:01:23;;;;;;;0.82;0.82;;;3.30;1.00;;;;;;5165856;27;20180;-71
2024/01/29 05:03:48;;;;;;;0.57;0.57;;;3.40;1.00;;;;;;5146431;27;20512;-71
2024/01/29 05:06:14;;;;;;;0.95;0.90;;;3.20;1.00;;;;;;5165002;27;20089;-72
2024/01/29 05:08:40;;;;;;;2.30;0.95;;;;;;;;;;5165198;27;20393;-71
2024/01/29 05:11:06;;;;;;;0.98;0.98;;;3.30;1.00;;;;;;5147397;27;20050;-72
2024/01/29 05:13:32;;;;;;;2.03;1.40;;;;;;;;;;5165525;27;20475;-71
2024/01/29 05:15:58;;;;;;;0.68;0.68;;;3.20;1.00;;;;;;5165816;27;20444;-71
2024/01/29 05:18:23;;;;;;;1.08;0.77;;;3.20;1.00;;;;;;5146929;27;20491;-72
2024/01/29 05:20:49;;;;;;;0.32;0.32;;;3.10;1.00;;;;;;5147264;27;20038;-71
2024/01/29 05:23:15;;;;;;;2.03;1.80;;;3.50;1.00;;;;;;5165623;27;20100;-71
2024/01/29 05:25:41;;;;;;;0.65;0.65;;;3.30;1.00;;;;;;5163841;27;20039;-72
2024/01/29 05:28:07;;;;;;;0.50;0.50;;;;;;;;;;5164095;27;20078;-71
2024/01/29 05:30:33;;;;;;;2.53;2.30;;;;;;;;;;5164661;27;20051;-72
2024/01/29 05:32:59;;;;;;;0.80;0.80;;;3.00;1.00;;;;;;5164964;27;20042;-72
2024/01/29 05:35:25;;;;;;;0.88;0.88;;;3.20;1.00;;;;;;5163299;27;20106;-72
2024/01/29 05:37:51;;;;;;;;;;;3.20;1.00;;;;;;5165414;27;20038;-72
2024/01/29 05:40:16;;;;;;;0.43;0.43;;;3.00;1.00;;;;;;5165518;27;20270;-71
2024/01/29 05:42:43;;;;;;;0.50;0.50;;;3.30;1.00;;;;;;5164975;27;20042;-72
2024/01/29 05:45:09;;;;;;;0.85;0.85;;;3.20;1.00;;;;;;5164519;27;20047;-72
2024/01/29 05:47:34;;;;;;;;;;;3.00;1.00;;;;;;5161212;27;20427;-72
2024/01/29 05:50:01;;;;;;;1.02;0.95;;;;;;;;;;5163010;27;20339;-72
2024/01/29 05:52:26;;;;;;;;;;;3.20;1.00;;;;;;5165796;27;20050;-71
2024/01/29 05:54:53;;;;;;;0.75;0.75;;;3.10;1.00;;;;;;5166648;27;20354;-71
2024/01/29 05:57:18;;;;;;;;;;;3.10;1.00;;;;;;5132919;27;20045;-71
2024/01/29 05:59:44;;;;;;;0.73;0.68;;;;;;;;;;5166547;27;19958;-71
2024/01/29 06:02:10;;;;;;;0.50;0.50;;;3.30;1.00;;;;;;5160923;27;20074;-71
2024/01/29 06:04:36;;;;;;;1.33;1.23;;;3.30;1.00;;;;;;5151455;27;20382;-72
2024/01/29 06:07:02;;;;;;;0.75;0.75;;;3.30;1.00;;;;;;5155762;27;20119;-71
2024/01/29 06:09:28;;;;;;;7.40;1.75;;;3.20;1.00;;;;;;5158679;27;20050;-71
2024/01/29 06:11:54;;;;;;;0.95;0.68;;;3.20;1.00;;;;;;5175676;27;20049;-71
2024/01/29 06:14:20;;;;;;;1.75;1.42;;;3.10;1.00;;;;;;5177694;27;20046;-70
2024/01/29 06:16:46;;;;;;;1.02;0.95;;;;;;;;;;5180341;27;20041;-71
2024/01/29 06:19:17;;;;;;;1.13;1.13;;;3.20;1.00;;;;;;5161757;27;20095;-71
2024/01/29 06:21:47;;;;;;;1.63;1.38;;;3.30;1.00;;;;;;5179766;27;20039;-71
2024/01/29 06:24:13;;;;;;;0.17;0.17;;;3.40;1.00;;;;;;5178954;27;20059;-71
2024/01/29 06:26:39;;;;;;;2.10;1.48;;;3.50;1.00;;;;;;5178920;27;20027;-71
2024/01/29 06:29:05;;;;;;;1.58;1.48;;;3.10;1.00;;;;;;5178200;27;20023;-71
2024/01/29 06:31:31;;;;;;;0.98;0.93;;;3.60;1.00;;;;;;5174063;27;20101;-72
2024/01/29 06:33:57;;;;;;;3.17;2.33;;;3.10;1.00;;;;;;5173036;27;20143;-71
2024/01/29 06:36:23;;;;;;;0.95;0.95;;;3.40;1.00;;;;;;5171790;27;20042;-71
2024/01/29 06:38:49;;;;;;;0.75;0.65;;;3.30;1.00;;;;;;5170106;27;20428;-72
2024/01/29 06:41:22;;;;;;;0.57;0.57;;;3.40;1.00;;;;;;5147370;27;20046;-72
2024/01/29 06:43:52;;;;;;;0.77;0.77;;;3.30;1.00;;;;;;5158216;27;20121;-72
2024/01/29 06:46:18;;;;;;;1.05;1.05;;;3.10;1.00;;;;;;5156592;27;20486;-72
2024/01/29 06:48:44;;;;;;;0.60;0.60;;;3.00;1.00;;;;;;5138313;27;20480;-72
2024/01/29 06:51:10;;;;;;;1.55;0.70;;;3.10;1.00;;;;;;5156370;27;20116;-71
2024/01/29 06:53:36;;;;;;;2.53;2.05;;;;;;;;;;5156560;27;20054;-70
2024/01/29 06:56:04;;;;;;;0.65;0.65;;;3.30;1.00;;;;;;5156524;27;20054;-71
2024/01/29 06:58:37;;;;;;;0.57;0.57;;;;;;;;;;5156376;27;20134;-71
2024/01/29 07:05:40;;;;;;;0.77;0.77;;;;;;;;;;5129496;27;1261802;-71
2024/01/29 07:08:06;;;;;;;0.52;0.52;;;2.80;1.00;;;;;;5149461;27;20051;-72
2024/01/29 07:10:32;;;;;;;1.02;1.02;;;;;;;;;;5149145;27;20127;-72
2024/01/29 07:12:57;;;;;;;0.95;0.95;;;2.90;1.00;;;;;;5149123;27;20043;-71
2024/01/29 07:15:23;;;;;;;0.73;0.73;;;3.00;1.00;;;;;;5148839;27;20039;-72
2024/01/29 07:17:49;;;;;;;0.93;0.88;;;3.00;1.00;;;;;;5150285;27;20046;-71
2024/01/29 07:20:14;;;;;;;1.25;1.20;;;3.00;1.00;;;;;;5131282;27;20084;-71
2024/01/29 07:22:42;;;;;;;0.73;0.73;;;3.30;1.00;;;;;;5150093;27;20126;-72
2024/01/29 07:25:08;;;;;;;0.50;0.50;;;2.90;1.00;;;;;;5149533;27;20542;-72
2024/01/29 07:27:34;;;;;;;20.05;1.83;;;3.20;1.00;;;;;;5150064;27;20051;-71
2024/01/29 07:29:59;;;;;;;0.80;0.75;;;3.20;1.00;;;;;;5149838;27;20490;-71
2024/01/29 07:32:31;;;;;;;0.60;0.60;;;2.90;1.00;;;;;;5150275;27;20070;-71
2024/01/29 07:35:03;;;;;;;0.73;0.73;;;3.10;1.00;;;;;;5149829;27;20634;-71
2024/01/29 07:37:29;;;;;;;0.47;0.47;;;3.00;1.00;;;;;;5150013;27;20043;-71
2024/01/29 07:39:55;;;;;;;0.47;0.47;;;3.10;1.00;;;;;;5149234;27;20399;-71
2024/01/29 07:42:22;;;;;;;1.23;0.93;;;3.00;1.00;;;;;;5149729;27;20050;-71
2024/01/29 07:44:48;;;;;;;1.27;1.17;;;2.90;1.00;;;;;;5149354;27;20483;-71
2024/01/29 07:47:14;;;;;;;;;;;3.00;1.00;;;;;;5150028;27;20046;-72
2024/01/29 07:49:40;;;;;;;1.00;0.93;;;2.90;1.00;;;;;;5149052;27;20305;-71
2024/01/29 07:52:06;;;;;;;1.75;1.35;;;3.30;1.00;;;;;;5149636;27;20054;-71
2024/01/29 07:54:31;;;;;;;0.80;0.80;;;3.30;1.00;;;;;;5149283;27;20665;-71
2024/01/29 07:56:57;;;;;;;0.47;0.47;;;3.20;1.00;;;;;;5149420;27;20801;-70
2024/01/29 07:59:23;;;;;;;1.20;1.10;;;3.10;1.00;;;;;;5149852;27;20039;-71
2024/01/29 08:01:49;;;;;;;0.57;0.57;;;;;;;;;;5149235;27;20051;-70
2024/01/29 08:04:15;;;;;;;0.45;0.45;;;3.10;1.00;;;;;;5130110;27;20061;-71
2024/01/29 08:06:40;;;;;;;1.08;1.02;;;3.10;1.00;;;;;;5149130;27;20058;-71
2024/01/29 08:09:06;;;;;;;0.80;0.80;;;3.70;1.00;;;;;;5130520;27;20043;-71
2024/01/29 08:11:33;;;;;;;0.63;0.63;;;3.60;1.80;;;;;;5130477;27;20054;-71
2024/01/29 08:13:58;;;;;;;4.53;2.60;;;3.60;1.00;;;;;;5148880;27;20046;-71
2024/01/29 08:16:24;;;;;;;0.60;0.60;;;3.60;1.00;;;;;;5138875;27;20047;-71
2024/01/29 08:18:50;;;;;;;0.43;0.43;;;3.90;1.00;;;;;;5135009;27;20069;-71
2024/01/29 08:21:17;;;;;;;3.53;1.52;;;3.70;1.00;;;;;;5135167;27;20047;-71
2024/01/29 08:23:43;;;;;;;7.72;3.25;;;4.00;1.00;;;;;;5134412;27;20483;-71
2024/01/29 08:26:09;;;;;;;1.17;1.17;;;4.50;1.00;;;;;;5135108;27;20066;-71
2024/01/29 08:28:34;;;;;;;0.60;0.60;;;4.10;1.00;;;;;;5134804;27;20064;-71
2024/01/29 08:31:00;;;;;;;1.88;1.20;;;4.20;1.00;;;;;;5100101;27;20095;-71
2024/01/29 08:33:28;;;;;;;0.60;0.60;;;4.30;1.00;;;;;;5134958;27;20038;-71
2024/01/29 08:35:54;;;;;;;2.00;1.42;;;4.30;1.00;;;;;;5134867;27;20058;-71
2024/01/29 08:38:20;;;;;;;0.98;0.95;;;4.20;1.00;;;;;;5116077;27;20070;-71
2024/01/29 08:40:46;;;;;;;1.15;0.90;;;4.00;1.00;;;;;;5134740;27;20120;-71
2024/01/29 08:43:12;;;;;;;0.43;0.43;;;4.10;1.00;;;;;;5116216;27;20046;-71
2024/01/29 08:45:37;;;;;;;0.30;0.30;;;4.10;1.00;;;;;;5134469;27;20088;-71
2024/01/29 08:48:04;;;;;;;13.32;1.58;;;4.20;1.00;;;;;;5134281;27;20136;-71
2024/01/29 08:50:36;;;;;;;2.13;1.77;;;3.90;1.00;;;;;;5134470;27;20127;-70
2024/01/29 08:53:03;;;;;;;1.23;1.20;;;4.30;1.00;;;;;;5121735;27;20050;-71
2024/01/29 08:55:30;;;;;;;0.63;0.60;;;4.60;1.00;;;;;;5116026;27;20059;-71
2024/01/29 08:57:56;;;;;;;1.92;1.73;;;4.40;1.00;;;;;;5134423;27;20043;-71
2024/01/29 09:00:22;;;;;;;1.45;1.35;;;4.50;1.00;;;;;;5115955;27;20096;-72
2024/01/29 09:02:51;;;;;;;1.35;0.82;;;4.40;1.00;;;;;;5134339;27;20050;-71
2024/01/29 09:05:17;;;;;;;0.82;0.82;;;4.10;1.00;;;;;;5133572;27;20055;-71
2024/01/29 09:07:43;;;;;;;0.80;0.80;;;4.50;1.00;;;;;;5134252;27;20078;-71
2024/01/29 09:10:09;;;;;;;0.85;0.80;;;4.70;1.00;;;;;;5115538;27;20043;-72
2024/01/29 09:12:35;;;;;;;1.15;1.13;;;4.50;1.00;;;;;;5095586;28;20052;-71
2024/01/29 09:15:04;;;;;;;0.88;0.88;;;4.40;1.00;;;;;;5128673;27;20046;-71
2024/01/29 09:17:30;;;;;;;1.73;1.60;;;4.90;1.00;;;;;;5134059;27;20052;-71
2024/01/29 09:19:57;;;;;;;2.75;1.40;;;4.80;1.00;;;;;;5115559;27;20043;-70
2024/01/29 09:22:23;;;;;;;0.98;0.98;;;4.60;1.00;;;;;;5133932;27;20047;-71
2024/01/29 09:24:48;;;;;;;0.68;0.68;;;4.70;1.00;;;;;;5114956;27;20100;-71
2024/01/29 09:27:14;;;;;;;2.00;1.38;;;4.90;1.00;;;;;;5132882;27;20039;-71
2024/01/29 09:29:40;;;;;;;1.00;1.00;;;4.80;1.00;;;;;;5133496;27;20127;-71
2024/01/29 09:32:07;;;;;;;;;;;5.20;1.00;;;;;;5134082;27;20047;-71
2024/01/29 09:34:33;;;;;;;1.00;0.93;;;5.10;1.00;;;;;;5133500;27;19965;-70
2024/01/29 09:36:58;;;;;;;2.03;1.33;;;5.10;1.00;;;;;;5133686;27;20046;-71
2024/01/29 09:39:27;;;;;;;1.50;1.17;;;5.50;1.00;;;;;;5133439;27;20051;-71
2024/01/29 09:42:02;;;;;;;3.03;1.70;;;5.10;1.00;;;;;;5133578;27;20055;-71
2024/01/29 09:44:29;;;;;;;2.60;1.73;;;6.60;1.00;;;;;;5133159;27;20444;-71
2024/01/29 09:46:55;;;;;;;1.02;1.02;;;5.20;1.00;;;;;;5133137;27;20536;-71
2024/01/29 09:49:22;;;;;;;1.58;1.48;;;6.10;1.00;;;;;;5133044;27;20122;-71
2024/01/29 09:51:48;;;;;;;1.35;1.17;;;5.70;1.00;;;;;;5133355;27;20092;-72
2024/01/29 09:54:14;;;;;;;;;;;5.70;1.00;;;;;;5133287;27;20035;-72
2024/01/29 09:56:40;;;;;;;1.58;1.48;;;5.70;1.00;;;;;;5133425;27;19927;-71
2024/01/29 09:59:06;;;;;;;1.45;1.40;;;7.00;1.00;;;;;;5133142;27;20046;-71
2024/01/29 10:01:33;;;;;;;1.48;1.38;;;6.70;1.00;;;;;;5133164;27;20372;-71
2024/01/29 10:03:58;;;;;;;1.77;0.73;;;6.00;1.00;;;;;;5132613;27;20479;-71
2024/01/29 10:06:24;;;;;;;1.70;1.60;;;6.10;1.00;;;;;;5132878;27;20065;-71
2024/01/29 10:08:51;;;;;;;0.93;0.93;;;5.70;1.00;;;;;;5132765;27;20123;-71
2024/01/29 10:11:18;;;;;;;0.98;0.98;;;5.90;1.00;;;;;;5114560;27;20047;-71
2024/01/29 10:13:47;;;;;;;1.42;1.17;;;6.60;1.00;;;;;;5111840;27;20059;-71
2024/01/29 10:16:12;;;;;;;1.23;1.02;;;6.30;1.00;;;;;;5130951;27;20057;-71
2024/01/29 10:18:38;;;;;;;1.67;1.45;;;6.20;1.00;;;;;;5112473;27;20058;-71
2024/01/29 10:21:06;;;;;;;1.83;1.17;;;6.60;1.00;;;;;;5132831;27;20046;-71
2024/01/29 10:23:32;;;;;;;1.38;1.08;;;6.90;1.00;;;;;;5132586;27;20035;-71
2024/01/29 10:25:59;;;;;;;;;;;6.70;1.00;;;;;;5133470;27;20128;-71
2024/01/29 10:28:29;;;;;;;0.75;0.75;;;6.50;1.00;;;;;;5132710;27;19926;-71
2024/01/29 10:30:55;;;;;;;1.75;1.52;;;7.40;1.00;;;;;;5132817;27;20042;-71
2024/01/29 10:33:24;;;;;;;2.22;1.00;;;6.80;1.00;;;;;;5132641;27;20035;-71
2024/01/29 10:35:50;;;;;;;0.65;0.65;;;7.50;1.00;;;;;;5133023;27;20130;-70
2024/01/29 10:38:22;;;;;;;0.73;0.73;;;6.70;1.00;;;;;;5132450;27;20074;-71
2024/01/29 10:40:49;;;;;;;1.67;1.38;;;6.80;1.00;;;;;;5132913;27;20047;-70
2024/01/29 10:43:19;;;;;;;;;;;7.10;1.00;;;;;;5133055;27;20054;-71
2024/01/29 10:45:47;;;;;;;0.40;0.40;;;7.00;1.00;;;;;;5114222;27;19968;-71
2024/01/29 10:48:23;;;;;;;1.52;1.35;;;6.80;1.00;;;;;;5114206;27;20104;-70
2024/01/29 10:50:50;;;;;;;1.90;1.15;;;6.90;1.00;;;;;;5132205;27;20050;-71
2024/01/29 10:53:17;;;;;;;0.88;0.88;;;6.90;1.00;;;;;;5132430;27;20391;-71
2024/01/29 10:55:50;;;;;;;1.55;1.45;;;8.00;1.00;;;;;;5132273;27;20075;-71
2024/01/29 10:58:17;;;;;;;1.48;1.38;;;6.90;1.00;;;;;;5132410;27;20043;-71
2024/01/29 11:00:44;;;;;;;1.08;0.95;;;7.00;1.00;;;;;;5131936;27;20043;-71
2024/01/29 11:03:12;;;;;;;1.35;1.25;;;7.10;1.00;;;;;;5131962;28;20667;-71
2024/01/29 11:05:56;;;;;;;3.08;1.48;;;7.00;1.00;;;;;;5131468;28;20159;-71
2024/01/29 11:08:26;;;;;;;1.83;1.70;;;7.20;1.00;;;;;;5132208;28;20384;-71
2024/01/29 11:10:52;;;;;;;1.27;1.05;;;7.00;1.00;;;;;;5118966;28;20058;-71
2024/01/29 11:13:20;;;;;;;1.05;0.98;;;7.40;1.00;;;;;;5132019;28;20047;-71
2024/01/29 11:15:46;;;;;;;3.90;2.80;;;7.20;1.00;;;;;;5132045;28;20058;-72
2024/01/29 11:18:12;;;;;;;3.60;2.45;;;7.20;1.00;;;;;;5113428;28;20043;-71
2024/01/29 11:20:40;;;;;;;1.33;1.25;;;7.10;1.00;;;;;;5132060;28;20047;-71
2024/01/29 11:23:10;;;;;;;1.02;1.02;;;7.20;1.00;;;;;;5131611;28;20075;-71
2024/01/29 11:25:37;;;;;;;1.05;1.00;;;8.30;1.00;;;;;;5131738;28;20047;-71
2024/01/29 11:28:06;;;;;;;2.45;1.45;;;7.70;1.00;;;;;;5131827;28;20062;-71
2024/01/29 11:30:32;;;;;;;1.08;1.02;;;7.20;1.00;;;;;;5131916;28;20058;-71
2024/01/29 11:33:13;;;;;;;2.40;1.63;;;7.20;1.00;;;;;;5131377;28;20043;-71
2024/01/29 11:35:39;;;;;;;1.67;1.58;;;7.60;1.00;;;;;;5132273;28;20484;-71
2024/01/29 11:38:09;;;;;;;1.75;1.65;;;7.40;1.00;;;;;;5113150;28;20054;-70
2024/01/29 11:40:38;;;;;;;4.00;2.03;;;7.60;1.00;;;;;;5131838;28;20054;-70
2024/01/29 11:43:09;;;;;;;1.00;1.00;;;8.20;1.00;;;;;;5131672;28;20143;-71
2024/01/29 11:45:38;;;;;;;4.75;1.38;;;7.50;1.00;;;;;;5131913;28;20039;-71
2024/01/29 11:48:14;;;;;;;2.75;1.83;;;7.50;1.00;;;;;;5118432;28;20047;-70
2024/01/29 11:50:43;;;;;;;1.70;1.60;;;7.70;1.00;;;;;;5132427;27;20047;-71
2024/01/29 11:53:11;;;;;;;6.18;2.63;;;7.70;1.00;;;;;;5135587;27;20069;-71
2024/01/29 11:55:37;;;;;;;1.30;1.27;;;7.70;1.00;;;;;;5116981;27;20053;-71
2024/01/29 11:58:03;;;;;;;2.90;2.15;;;7.60;1.00;;;;;;5135685;27;20069;-71
2024/01/29 12:00:29;;;;;;;3.58;1.50;;;7.40;1.00;;;;;;5135427;27;20096;-71
2024/01/29 12:02:54;;;;;;;3.10;2.05;;;7.80;1.00;;;;;;5135605;27;20047;-71
2024/01/29 12:05:20;;;;;;;1.52;1.40;;;7.90;1.00;;;;;;5134614;27;20067;-71
2024/01/29 12:07:50;;;;;;;2.13;1.98;;;7.40;3.40;;;;;;5135535;27;20053;-72
2024/01/29 12:10:16;;;;;;;5.55;1.48;;;7.80;8.50;;;;;;5134955;27;20491;-71
2024/01/29 12:12:42;;;;;;;;;;;7.90;14.80;;;;;;5135699;27;20047;-71
2024/01/29 12:15:10;;;;;;;3.13;1.98;;;8.10;12.00;;;;;;5134867;27;19920;-71
2024/01/29 12:17:39;;;;;;;1.33;1.17;;;8.00;19.30;;;;;;5135400;27;20114;-71
2024/01/29 12:20:05;;;;;;;3.60;1.45;;;7.80;15.30;;;;;;5135114;27;20058;-71
2024/01/29 12:22:32;;;;;;;1.48;1.38;;;8.00;18.10;;;;;;5117082;27;20103;-71
2024/01/29 12:24:59;;;;;;;0.85;0.85;;;8.60;18.60;;;;;;5116265;27;20035;-71
2024/01/29 12:27:25;;;;;;;0.85;0.70;;;8.50;19.00;;;;;;5134910;27;20054;-71
2024/01/29 12:29:52;;;;;;;1.73;1.58;;;8.50;19.10;;;;;;5134542;27;20042;-71
2024/01/29 12:32:20;;;;;;;3.17;1.98;;;8.10;21.30;;;;;;5134991;27;20075;-71
2024/01/29 12:34:47;;;;;;;3.28;1.83;;;9.00;22.70;;;;;;5134596;27;20047;-71
2024/01/29 12:37:21;;;;;;;1.98;1.27;;;9.20;24.70;;;;;;5134597;27;20517;-71
2024/01/29 12:39:56;;;;;;;3.28;1.67;;;8.10;28.40;;;;;;5134505;27;20047;-71
2024/01/29 12:42:23;;;;;;;2.55;1.35;;;8.10;30.80;;;;;;5134747;27;20129;-71
2024/01/29 12:44:50;;;;;;;4.07;1.80;;;8.00;34.30;;;;;;5118187;27;20122;-71
2024/01/29 12:47:21;;;;;;;3.67;2.13;;;8.10;39.40;;;;;;5135986;27;20078;-71
2024/01/29 12:49:47;;;;;;;6.70;4.47;;;8.10;43.30;;;;;;5129143;27;20084;-73
2024/01/29 12:52:13;;;;;;;3.13;1.60;;;7.80;45.90;;;;;;5135646;27;20071;-70
2024/01/29 12:54:39;;;;;;;1.15;1.05;;;8.20;48.50;;;;;;5137999;27;20035;-73
2024/01/29 12:57:07;;;;;;;1.48;1.38;;;8.30;51.20;;;;;;5138256;27;20222;-72
2024/01/29 12:59:32;;;;;;;2.08;1.52;;;8.10;54.40;;;;;;5138549;27;20057;-70
2024/01/29 13:01:59;;;;;;;7.45;1.40;;;8.20;59.80;;;;;;5125349;27;20047;-72
2024/01/29 13:04:25;;;;;;;1.83;1.35;;;8.20;66.30;;;;;;5136781;27;20046;-72
2024/01/29 13:06:51;;;;;;;6.68;2.72;;;8.20;72.10;;;;;;5135089;27;20499;-73
2024/01/29 13:09:17;;;;;;;2.17;1.70;;;8.10;78.50;;;;;;5117717;27;20043;-72
2024/01/29 13:11:44;;;;;;;2.42;1.42;;;8.20;74.40;;;;;;5136795;27;20051;-73
2024/01/29 13:14:11;;;;;;;0.40;0.40;;;7.90;88.60;;;;;;5136960;27;20039;-73
2024/01/29 13:16:37;;;;;;;1.85;1.75;;;8.50;91.80;;;;;;5136436;27;20092;-71